»·PEaware :: N9298L KSLE-KOTH

N9298L :: KSLE-KOTH

FLIGHT INFORMATION

Flight Status: Arrived
Operator: Privately registered:
United States
More flights under this callsign
Pilot: Brendan O. (14500)
Aircraft: PIPER PA-32 SARATOGA
(PA32)
More flights by this aircraft type
Origin: KSLE McNary
United States
Destination: KOTH North Bend Mun
United States
More flights between these airports :: More routes between these airports
Route: +TURNO V23 EUG V121 OTH
File this flight plan on PilotEdge
Remarks: SLE4 radar vector departure
Altitude:
(Current/Filed)
6,000ft
Speed:
(Current/Filed)
140kts
Departed: 10-Nov-17 04:37 PM
Arrived: 10-Nov-17 05:34 PM
Distance/Time
Traveled:
104nm/0:57
Distance/Time
To Go:
Arrived

Flight Plot

Page will automatically refresh every two minutes.

Flight plan parsing failed; only flown route is shown


Map Options




Map Legend


Flown Route
Filed Route
Departure Airport
Arrival Airport
Navaid (VOR, NDB)
Fix

Horizontal Profiles

Position Reports

Time Latitude Longitude Heading Altitude Ground
Speed
10-Nov-17 16:32 44.910788 -123.007402 73 197ft 0kts
10-Nov-17 16:33 44.911478 -123.006882 356 198ft 11kts
10-Nov-17 16:34 44.914934 -123.007444 330 194ft 13kts
10-Nov-17 16:35 44.915717 -123.007714 62 193ft 0kts
10-Nov-17 16:36 44.915717 -123.007714 62 193ft 0kts
10-Nov-17 16:37 44.915717 -123.007714 62 193ft 0kts
10-Nov-17 16:38 44.915717 -123.007714 62 193ft 0kts
10-Nov-17 16:39 44.915717 -123.007714 62 193ft 0kts
10-Nov-17 16:40 44.915717 -123.007714 62 193ft 0kts
10-Nov-17 16:41 44.915823 -123.006444 149 195ft 9kts
10-Nov-17 16:42 44.891864 -122.987073 148 1279ft 112kts
10-Nov-17 16:43 44.865490 -122.965171 151 2661ft 110kts
10-Nov-17 16:44 44.837476 -122.958253 192 3910ft 110kts
10-Nov-17 16:45 44.806618 -122.967521 195 5107ft 116kts
10-Nov-17 16:46 44.774477 -122.978304 193 6040ft 137kts
10-Nov-17 16:47 44.733966 -122.993190 195 6041ft 156kts
10-Nov-17 16:48 44.692171 -123.010143 195 6043ft 157kts
10-Nov-17 16:49 44.649957 -123.025341 194 6047ft 157kts
10-Nov-17 16:50 44.607868 -123.042868 198 6000ft 160kts
10-Nov-17 16:51 44.565060 -123.057002 192 5977ft 158kts
10-Nov-17 16:52 44.522465 -123.072603 197 5951ft 157kts
10-Nov-17 16:53 44.480752 -123.089946 196 5961ft 158kts
10-Nov-17 16:54 44.439111 -123.108805 196 5959ft 157kts
10-Nov-17 16:55 44.396472 -123.119256 189 6038ft 155kts
10-Nov-17 16:56 44.354116 -123.134371 196 5978ft 157kts
10-Nov-17 16:57 44.312000 -123.151400 198 5971ft 158kts
10-Nov-17 16:58 44.270082 -123.168144 195 6012ft 156kts
10-Nov-17 16:59 44.228747 -123.185805 197 6084ft 154kts
10-Nov-17 17:00 44.185892 -123.197966 191 6023ft 158kts
10-Nov-17 17:01 44.143652 -123.214450 197 5999ft 158kts
10-Nov-17 17:02 44.104053 -123.237844 228 5989ft 158kts
10-Nov-17 17:03 44.076114 -123.284707 226 5964ft 158kts
10-Nov-17 17:04 44.063279 -123.303347 226 5975ft 157kts
10-Nov-17 17:05 44.044055 -123.336329 216 6006ft 155kts
10-Nov-17 17:06 44.012632 -123.376058 210 5987ft 152kts
10-Nov-17 17:07 43.981203 -123.415454 219 5989ft 156kts
10-Nov-17 17:08 43.951500 -123.458790 215 6008ft 154kts
10-Nov-17 17:09 43.920529 -123.499575 217 6033ft 157kts
10-Nov-17 17:10 43.890566 -123.538997 215 6062ft 153kts
10-Nov-17 17:11 43.859177 -123.579614 214 6009ft 156kts
10-Nov-17 17:12 43.828475 -123.621775 217 6055ft 154kts
10-Nov-17 17:13 43.798565 -123.664379 218 5992ft 158kts
10-Nov-17 17:14 43.767915 -123.706772 211 5954ft 156kts
10-Nov-17 17:15 43.737249 -123.748256 212 5977ft 150kts
10-Nov-17 17:16 43.706104 -123.785103 212 5962ft 149kts
10-Nov-17 17:17 43.676370 -123.825019 215 5971ft 151kts
10-Nov-17 17:18 43.647356 -123.865836 208 5992ft 145kts
10-Nov-17 17:19 43.617059 -123.903655 213 5562ft 147kts
10-Nov-17 17:20 43.587967 -123.944416 210 4535ft 147kts
10-Nov-17 17:21 43.558752 -123.982221 213 4037ft 140kts
10-Nov-17 17:22 43.543223 -124.030890 264 3978ft 158kts
10-Nov-17 17:23 43.546065 -124.091903 264 4072ft 162kts
10-Nov-17 17:24 43.543359 -124.153348 230 4059ft 153kts
10-Nov-17 17:25 43.525205 -124.206813 235 4000ft 155kts
10-Nov-17 17:26 43.507884 -124.261030 234 4039ft 152kts
10-Nov-17 17:27 43.489007 -124.315049 231 4027ft 158kts
10-Nov-17 17:28 43.470232 -124.369989 235 4008ft 158kts
10-Nov-17 17:29 43.452230 -124.425203 238 3960ft 158kts
10-Nov-17 17:30 43.434125 -124.481106 236 3748ft 165kts
10-Nov-17 17:31 43.411234 -124.530220 185 3141ft 137kts
10-Nov-17 17:32 43.379685 -124.516191 154 2954ft 116kts
10-Nov-17 17:33 43.368691 -124.482807 86 2997ft 123kts
10-Nov-17 17:34 43.374515 -124.437336 99 3024ft 118kts
10-Nov-17 17:35 43.370053 -124.393908 112 2972ft 110kts
10-Nov-17 17:36 43.379322 -124.354525 75 2558ft 118kts
10-Nov-17 17:37 43.393603 -124.313294 68 1342ft 133kts
10-Nov-17 17:38 43.409680 -124.272732 67 292ft 151kts
10-Nov-17 17:39 43.417261 -124.254035 50 17ft 12kts
10-Nov-17 17:40 43.417692 -124.251131 134 22ft 0kts
10-Nov-17 17:41 43.418766 -124.246784 140 16ft 5kts

Navigation Log

Ident Type
Flight plan parsing failed, navigation log unavailable